»·PEaware :: AAL1454 KSFO-KLAX

AAL1454 :: KSFO-KLAX

FLIGHT INFORMATION

Flight Status: Arrived
Operator:
American Airlines
More flights by this operator :: More flights under this callsign
Pilot: Jordan D. (16847)
Aircraft: AIRBUS A319
(A319)
More flights by this aircraft type
Origin: KSFO San Francisco Intl
United States
Destination: KLAX Los Angeles Intl
United States
More flights between these airports :: More routes between these airports
Route: SSTIK4 EBAYE BURGL IRNMN2
File this flight plan on PilotEdge
Remarks:
Altitude:
(Current/Filed)
31,000ft
Speed:
(Current/Filed)
446kts
Departed: 20-Nov-18 08:42 PM
Arrived: 20-Nov-18 09:35 PM
Distance/Time
Traveled:
293nm/0:53
Distance/Time
To Go:
Arrived

Flight Plot

Page will automatically refresh every two minutes.

Flight plan parsing failed; only flown route is shown


Map Options




Map Legend


Flown Route
Filed Route
Departure Airport
Arrival Airport
Navaid (VOR, NDB)
Fix

Horizontal Profiles

Position Reports

Time Latitude Longitude Heading Altitude Ground
Speed
20-Nov-18 20:08 37.614415 -122.382693 27 27ft 0kts
20-Nov-18 20:09 37.614415 -122.382693 27 27ft 0kts
20-Nov-18 20:10 37.614415 -122.382693 27 27ft 0kts
20-Nov-18 20:11 37.614415 -122.382693 27 27ft 0kts
20-Nov-18 20:12 37.614415 -122.382693 27 27ft 0kts
20-Nov-18 20:13 37.614415 -122.382693 27 27ft 0kts
20-Nov-18 20:14 37.614415 -122.382693 27 27ft 0kts
20-Nov-18 20:15 37.614415 -122.382693 27 27ft 0kts
20-Nov-18 20:16 37.614415 -122.382693 27 27ft 0kts
20-Nov-18 20:17 37.614415 -122.382693 27 27ft 0kts
20-Nov-18 20:18 37.614415 -122.382693 27 27ft 0kts
20-Nov-18 20:19 37.614415 -122.382693 27 27ft 0kts
20-Nov-18 20:20 37.614415 -122.382693 27 27ft 0kts
20-Nov-18 20:21 37.614415 -122.382693 27 27ft 0kts
20-Nov-18 20:22 37.614415 -122.382693 27 27ft 0kts
20-Nov-18 20:23 37.614415 -122.382693 27 27ft 0kts
20-Nov-18 20:24 37.614415 -122.382693 27 27ft 0kts
20-Nov-18 20:25 37.614415 -122.382693 27 27ft 0kts
20-Nov-18 20:26 37.614415 -122.382693 27 27ft 0kts
20-Nov-18 20:27 37.614415 -122.382693 27 27ft 0kts
20-Nov-18 20:28 37.614415 -122.382693 27 27ft 0kts
20-Nov-18 20:29 37.614415 -122.382693 27 27ft 0kts
20-Nov-18 20:30 37.614415 -122.382693 27 27ft 0kts
20-Nov-18 20:31 37.614415 -122.382693 27 27ft 0kts
20-Nov-18 20:32 37.614415 -122.382693 27 27ft 0kts
20-Nov-18 20:33 37.614147 -122.382884 35 27ft 2kts
20-Nov-18 20:34 37.613991 -122.383485 118 27ft 1kts
20-Nov-18 20:35 37.613991 -122.383485 118 27ft 0kts
20-Nov-18 20:36 37.613991 -122.383484 118 27ft 0kts
20-Nov-18 20:37 37.613991 -122.383484 118 27ft 0kts
20-Nov-18 20:38 37.613945 -122.383377 118 27ft 1kts
20-Nov-18 20:39 37.613538 -122.382388 116 27ft 0kts
20-Nov-18 20:40 37.613519 -122.382352 126 27ft 1kts
20-Nov-18 20:41 37.611983 -122.382716 207 27ft 12kts
20-Nov-18 20:42 37.610112 -122.383942 207 27ft 5kts
20-Nov-18 20:43 37.609753 -122.384175 197 27ft 0kts
20-Nov-18 20:44 37.609006 -122.382512 104 27ft 10kts
20-Nov-18 20:45 37.632440 -122.367311 23 873ft 150kts
20-Nov-18 20:46 37.675424 -122.361814 4 3725ft 167kts
20-Nov-18 20:47 37.716596 -122.383245 295 6596ft 193kts
20-Nov-18 20:48 37.701913 -122.446282 204 8980ft 237kts
20-Nov-18 20:49 37.627296 -122.457874 183 11304ft 306kts
20-Nov-18 20:50 37.536191 -122.468964 185 14826ft 342kts
20-Nov-18 20:51 37.449119 -122.421711 134 18052ft 379kts
20-Nov-18 20:52 37.379652 -122.324454 136 21422ft 382kts
20-Nov-18 20:53 37.305915 -122.225091 136 24228ft 402kts
20-Nov-18 20:54 37.228250 -122.120181 137 26635ft 421kts
20-Nov-18 20:55 37.146615 -122.009963 137 29040ft 436kts
20-Nov-18 20:56 37.077969 -121.917815 137 30997ft 435kts
20-Nov-18 20:57 36.995062 -121.806894 137 31087ft 436kts
20-Nov-18 20:58 36.910382 -121.694075 137 31099ft 468kts
20-Nov-18 20:59 36.803481 -121.551839 137 31088ft 490kts
20-Nov-18 21:00 36.724916 -121.447881 137 31127ft 494kts
20-Nov-18 21:01 36.630916 -121.323742 137 31123ft 491kts
20-Nov-18 21:02 36.537025 -121.200469 137 31071ft 491kts
20-Nov-18 21:03 36.442825 -121.077163 137 31041ft 493kts
20-Nov-18 21:04 36.352301 -120.948229 134 31076ft 496kts
20-Nov-18 21:05 36.262026 -120.819134 134 31124ft 496kts
20-Nov-18 21:06 36.171393 -120.689464 134 31147ft 498kts
20-Nov-18 21:07 36.080243 -120.560009 134 31149ft 499kts
20-Nov-18 21:08 35.977820 -120.446245 142 31150ft 496kts
20-Nov-18 21:09 35.874424 -120.333180 141 31130ft 497kts
20-Nov-18 21:10 35.770408 -120.221010 142 31134ft 497kts
20-Nov-18 21:11 35.666107 -120.109073 146 31135ft 494kts
20-Nov-18 21:12 35.549826 -120.020659 152 31126ft 492kts
20-Nov-18 21:13 35.434953 -119.933745 152 31123ft 472kts
20-Nov-18 21:14 35.322490 -119.849851 152 31120ft 473kts
20-Nov-18 21:15 35.214917 -119.755814 145 31135ft 477kts
20-Nov-18 21:16 35.109527 -119.657011 146 31119ft 478kts
20-Nov-18 21:17 35.003697 -119.558701 146 31139ft 478kts
20-Nov-18 21:18 34.897826 -119.460481 146 31160ft 479kts
20-Nov-18 21:19 34.790453 -119.365118 147 31148ft 473kts
20-Nov-18 21:20 34.687413 -119.273543 148 29584ft 430kts
20-Nov-18 21:21 34.591325 -119.190816 147 24009ft 421kts
20-Nov-18 21:22 34.496124 -119.107258 145 19920ft 412kts
20-Nov-18 21:23 34.408485 -119.029909 146 17979ft 377kts
20-Nov-18 21:24 34.323240 -118.963344 164 16113ft 362kts
20-Nov-18 21:25 34.225752 -118.942322 171 13590ft 349kts
20-Nov-18 21:26 34.131738 -118.927595 172 10955ft 332kts
20-Nov-18 21:27 34.047556 -118.915927 172 10269ft 267kts
20-Nov-18 21:28 33.977130 -118.906654 172 8093ft 264kts
20-Nov-18 21:29 33.908680 -118.896829 162 7973ft 229kts
20-Nov-18 21:30 33.892141 -118.829614 85 7885ft 226kts
20-Nov-18 21:31 33.899403 -118.757196 84 6350ft 223kts
20-Nov-18 21:32 33.906147 -118.687877 83 4568ft 208kts
20-Nov-18 21:33 33.912813 -118.622768 83 3490ft 192kts
20-Nov-18 21:34 33.919233 -118.560065 83 2498ft 166kts
20-Nov-18 21:35 33.924440 -118.509226 82 1637ft 149kts
20-Nov-18 21:36 33.928817 -118.466302 81 943ft 124kts
20-Nov-18 21:37 33.932830 -118.427180 81 312ft 117kts
20-Nov-18 21:38 33.935660 -118.399868 85 140ft 22kts
20-Nov-18 21:39 33.936262 -118.399109 308 140ft 0kts
20-Nov-18 21:40 33.936395 -118.402783 283 140ft 12kts
20-Nov-18 21:41 33.937822 -118.404388 349 140ft 0kts
20-Nov-18 21:42 33.938067 -118.404497 325 140ft 0kts
20-Nov-18 21:43 33.938228 -118.404649 316 140ft 4kts
20-Nov-18 21:44 33.939092 -118.405463 352 140ft 10kts
20-Nov-18 21:45 33.939883 -118.405955 308 140ft 1kts
20-Nov-18 21:46 33.940025 -118.406171 308 140ft 0kts
20-Nov-18 21:47 33.940025 -118.406171 308 140ft 0kts
20-Nov-18 21:48 33.940025 -118.406171 308 140ft 0kts
20-Nov-18 21:49 33.940025 -118.406171 308 140ft 0kts
20-Nov-18 21:50 33.940025 -118.406171 308 140ft 0kts
20-Nov-18 21:51 33.940025 -118.406171 308 140ft 0kts
20-Nov-18 21:52 33.940025 -118.406171 308 140ft 0kts
20-Nov-18 21:53 33.940025 -118.406171 308 140ft 0kts

Navigation Log

Ident Type
Flight plan parsing failed, navigation log unavailable